Time;durP1;ratioP1;P1;durP2;ratioP2;P2;SDS_P1;SDS_P2;PMS_P1;PMS_P2;Temp;Humidity;BMP_temperature;BMP_pressure;BME280_temperature;BME280_humidity;BME280_pressure;Samples;Min_cycle;Max_cycle;Signal;HPM_P1;HPM_P2
2021/06/11 00:01:34;;;;;;;13.90;9.38;;;;;;;13.48;90.54;95860.00;4913849;29;20071;-72
2021/06/11 00:04:00;;;;;;;17.30;10.48;;;;;;;13.42;91.42;95860.31;4913331;29;20076;-72
2021/06/11 00:06:26;;;;;;;13.93;9.93;;;;;;;13.39;91.53;95855.59;4901766;29;20051;-72
2021/06/11 00:08:52;;;;;;;15.02;9.90;;;;;;;13.41;91.42;95861.41;4897798;29;20056;-72
2021/06/11 00:11:17;;;;;;;16.85;10.77;;;;;;;13.39;91.73;95855.59;4932618;29;20098;-72
2021/06/11 00:13:43;;;;;;;13.57;10.07;;;;;;;13.40;91.21;95862.47;4904590;29;20116;-72
2021/06/11 00:16:09;;;;;;;14.23;9.68;;;;;;;13.40;91.63;95860.59;4923589;29;20487;-72
2021/06/11 00:18:34;;;;;;;12.85;9.18;;;;;;;13.40;91.30;95857.94;4916207;29;20324;-72
2021/06/11 00:21:00;;;;;;;15.65;10.32;;;;;;;13.37;91.21;95863.03;4913731;29;20052;-72
2021/06/11 00:23:26;;;;;;;15.52;10.00;;;;;;;13.29;91.50;95857.25;4919616;29;20160;-72
2021/06/11 00:25:52;;;;;;;15.50;10.30;;;;;;;13.23;91.44;95858.34;4919717;29;20041;-72
2021/06/11 00:28:18;;;;;;;18.85;10.63;;;;;;;13.25;92.92;95861.50;4904213;29;20045;-72
2021/06/11 00:30:43;;;;;;;16.83;10.30;;;;;;;13.21;92.51;95849.91;4904637;29;20056;-72
2021/06/11 00:33:09;;;;;;;12.77;9.63;;;;;;;13.14;92.43;95850.22;4932251;29;20062;-72
2021/06/11 00:35:36;;;;;;;13.23;9.80;;;;;;;13.21;91.37;95857.81;4925691;29;20130;-72
2021/06/11 00:38:02;;;;;;;14.15;9.13;;;;;;;13.21;90.42;95849.91;4932606;29;20047;-72
2021/06/11 00:40:28;;;;;;;13.15;9.48;;;;;;;13.12;91.18;95851.56;4923580;29;20067;-73
2021/06/11 00:42:54;;;;;;;13.57;9.50;;;;;;;12.99;91.94;95856.41;4917078;29;20112;-72
2021/06/11 00:45:20;;;;;;;16.75;10.30;;;;;;;12.90;92.53;95847.50;4912460;29;20494;-72
2021/06/11 00:47:46;;;;;;;15.10;11.32;;;;;;;12.90;93.93;95847.50;4919480;29;20090;-72
2021/06/11 00:50:14;;;;;;;14.23;10.55;;;;;;;12.93;94.07;95852.25;4928899;29;20063;-72
2021/06/11 00:52:40;;;;;;;16.00;10.25;;;;;;;12.95;93.93;95855.38;4908513;29;20100;-72
2021/06/11 00:55:07;;;;;;;14.02;10.20;;;;;;;12.96;94.39;95854.31;4898468;29;20467;-72
2021/06/11 00:57:33;;;;;;;15.00;9.77;;;;;;;12.97;92.73;95850.63;4898231;29;20123;-72
2021/06/11 00:59:59;;;;;;;13.57;9.52;;;;;;;12.91;92.63;95851.72;4910456;29;20054;-72
2021/06/11 01:02:25;;;;;;;13.98;9.82;;;;;;;12.94;94.13;95853.81;4906044;29;20053;-72
2021/06/11 01:04:51;;;;;;;16.08;10.27;;;;;;;12.98;93.14;95851.41;4898324;29;20045;-72
2021/06/11 01:07:20;;;;;;;13.93;10.48;;;;;;;12.94;92.79;95845.91;4914274;29;20355;-72
2021/06/11 01:09:46;;;;;;;16.83;10.98;;;;;;;12.90;92.94;95838.78;4927774;29;20746;-72
2021/06/11 01:12:13;;;;;;;17.95;11.35;;;;;;;12.81;93.31;95846.50;4909542;29;20050;-72
2021/06/11 01:14:39;;;;;;;15.60;11.00;;;;;;;12.82;93.94;95843.59;4917034;29;20048;-73
2021/06/11 01:17:05;;;;;;;16.27;10.55;;;;;;;12.84;92.83;95845.94;4911686;29;20052;-72
2021/06/11 01:19:38;;;;;;;16.73;11.38;;;;;;;12.85;93.05;95841.47;4916950;29;20048;-74
2021/06/11 01:22:42;;;;;;;16.50;10.60;;;;;;;12.86;93.83;95849.13;4922380;29;20094;-72
2021/06/11 01:25:13;;;;;;;17.55;11.43;;;;;;;12.89;93.54;95848.56;4935916;29;20095;-72
2021/06/11 01:27:41;;;;;;;18.95;11.07;;;;;;;12.93;93.08;95843.50;4925713;29;20036;-72
2021/06/11 01:30:19;;;;;;;18.00;11.73;;;;;;;12.94;93.58;95851.19;4924237;29;20039;-72
2021/06/11 01:32:47;;;;;;;17.48;12.05;;;;;;;12.93;93.86;95844.31;4925126;29;20075;-72
2021/06/11 01:35:17;;;;;;;14.43;10.75;;;;;;;12.97;93.67;95842.72;4933339;29;20142;-72
2021/06/11 01:37:44;;;;;;;15.60;11.07;;;;;;;12.98;93.30;95841.63;4899926;29;20350;-73
2021/06/11 01:40:11;;;;;;;16.35;10.75;;;;;;;12.99;92.84;95840.56;4912510;29;20470;-73
2021/06/11 01:42:45;;;;;;;18.85;11.25;;;;;;;13.01;93.62;95840.28;4931340;29;20086;-73
2021/06/11 01:45:12;;;;;;;16.55;11.95;;;;;;;13.05;93.50;95843.97;4935601;29;20043;-72
2021/06/11 01:47:44;;;;;;;19.25;13.00;;;;;;;13.12;93.10;95841.00;4926860;29;20036;-72
2021/06/11 01:50:14;;;;;;;15.45;11.45;;;;;;;13.14;92.72;95836.22;4927148;29;20075;-73
2021/06/11 01:52:40;;;;;;;18.15;11.05;;;;;;;13.22;92.24;95830.34;4901136;29;20483;-74
2021/06/11 01:55:07;;;;;;;15.85;10.40;;;;;;;13.19;92.23;95825.63;4935173;29;20075;-75
2021/06/11 01:57:34;;;;;;;18.27;11.75;;;;;;;13.23;92.00;95821.34;4932651;29;20051;-73
2021/06/11 02:00:01;;;;;;;15.07;11.23;;;;;;;13.26;91.83;95831.38;4901194;29;20147;-75
2021/06/11 02:02:28;;;;;;;16.98;10.68;;;;;;;13.27;91.75;95822.34;4926937;29;20047;-75
2021/06/11 02:04:54;;;;;;;14.93;10.70;;;;;;;13.26;91.57;95820.78;4919698;29;20470;-75
2021/06/11 02:07:20;;;;;;;14.25;10.63;;;;;;;13.27;91.46;95819.72;4913799;29;20479;-75
2021/06/11 02:09:47;;;;;;;16.10;10.70;;;;;;;13.20;91.98;95816.59;4901311;29;20045;-75
2021/06/11 02:12:14;;;;;;;14.50;10.15;;;;;;;13.20;91.95;95821.13;4909498;29;20122;-76
2021/06/11 02:14:40;;;;;;;18.35;10.57;;;;;;;13.22;92.01;95819.78;4919257;29;20060;-76
2021/06/11 02:17:07;;;;;;;15.90;10.98;;;;;;;13.23;91.63;95816.06;4916095;29;20048;-75
2021/06/11 02:19:37;;;;;;;15.55;10.25;;;;;;;13.20;92.01;95816.59;4909779;29;20044;-76
2021/06/11 02:22:05;;;;;;;16.17;10.00;;;;;;;13.21;91.94;95818.19;4917278;29;20060;-76
2021/06/11 02:24:34;;;;;;;15.40;9.48;;;;;;;13.29;90.96;95820.25;4910511;29;20048;-76
2021/06/11 02:27:01;;;;;;;12.27;8.82;;;;;;;13.29;91.13;95822.88;4896761;29;20052;-76
2021/06/11 02:29:27;;;;;;;15.43;9.73;;;;;;;13.24;91.02;95817.63;4912489;29;20047;-75
2021/06/11 02:31:53;;;;;;;15.20;9.90;;;;;;;13.27;91.25;95819.72;4910893;29;20043;-75
2021/06/11 02:34:18;;;;;;;15.82;9.55;;;;;;;13.22;91.57;95819.78;4932269;29;20280;-75
2021/06/11 02:36:44;;;;;;;15.30;9.45;;;;;;;13.15;91.88;95808.75;4915869;29;20502;-75
2021/06/11 02:39:09;;;;;;;13.10;9.70;;;;;;;13.13;91.69;95816.13;4908887;29;20055;-76
2021/06/11 02:41:42;;;;;;;14.07;10.55;;;;;;;13.11;91.78;95823.56;4920556;29;20048;-76
2021/06/11 02:44:08;;;;;;;14.50;10.00;;;;;;;13.10;92.59;95821.97;4899682;29;20080;-75
2021/06/11 02:46:58;;;;;;;13.85;9.80;;;;;;;13.09;92.27;95817.78;4920507;29;20126;-73
2021/06/11 02:49:29;;;;;;;14.52;9.70;;;;;;;13.04;92.20;95823.09;4895358;29;20045;-72
2021/06/11 02:51:59;;;;;;;15.70;9.30;;;;;;;12.98;92.42;95825.00;4919541;29;20494;-72
2021/06/11 02:54:33;;;;;;;13.80;9.13;;;;;;;12.92;92.57;95826.09;4921469;29;20052;-72
2021/06/11 02:57:04;;;;;;;15.88;9.73;;;;;;;12.85;93.05;95826.41;4932231;29;20080;-72
2021/06/11 02:59:36;;;;;;;19.40;10.73;;;;;;;12.82;93.74;95827.75;4927415;29;20055;-72
2021/06/11 03:02:08;;;;;;;14.88;10.18;;;;;;;12.81;93.42;95825.38;4925995;29;20494;-72
2021/06/11 03:04:36;;;;;;;16.10;10.43;;;;;;;12.77;93.71;95833.06;4918717;29;20301;-72
2021/06/11 03:07:02;;;;;;;14.63;10.63;;;;;;;12.74;93.66;95835.47;4914554;29;20136;-73
2021/06/11 03:09:27;;;;;;;18.05;11.25;;;;;;;12.76;94.32;95833.34;4896128;29;20048;-73
2021/06/11 03:11:56;;;;;;;14.63;10.02;;;;;;;12.79;93.38;95832.81;4910099;29;20048;-72
2021/06/11 03:14:22;;;;;;;16.05;10.27;;;;;;;12.74;93.44;95840.75;4896654;29;20048;-72
2021/06/11 03:16:51;;;;;;;14.35;10.30;;;;;;;12.71;93.40;95843.94;4914542;29;20052;-73
2021/06/11 03:19:19;;;;;;;15.43;9.18;;;;;;;12.70;92.91;95845.00;4910133;29;20040;-72
2021/06/11 03:21:59;;;;;;;14.02;9.35;;;;;;;12.66;92.95;95844.75;4913288;29;20043;-73
2021/06/11 03:24:33;;;;;;;16.95;11.05;;;;;;;12.62;93.68;95849.78;4930289;29;20044;-73
2021/06/11 03:27:04;;;;;;;14.63;10.00;;;;;;;12.59;93.60;95850.34;4915277;29;20051;-72
2021/06/11 03:29:35;;;;;;;15.48;9.63;;;;;;;12.59;93.75;95852.97;4927459;29;20051;-72
2021/06/11 03:32:05;;;;;;;15.13;9.45;;;;;;;12.62;92.85;95855.06;4895384;29;20064;-73
2021/06/11 03:34:37;;;;;;;12.88;9.25;;;;;;;12.62;92.60;95855.06;4895914;29;20059;-73
2021/06/11 03:37:06;;;;;;;14.25;10.00;;;;;;;12.55;93.63;95854.59;4900148;29;20078;-72
2021/06/11 03:39:41;;;;;;;13.40;9.60;;;;;;;12.52;93.80;95855.13;4918014;29;20086;-73
2021/06/11 03:42:09;;;;;;;17.17;10.98;;;;;;;12.51;93.92;95864.09;4917879;29;20461;-73
2021/06/11 03:44:40;;;;;;;18.83;10.75;;;;;;;12.51;93.82;95853.56;4906954;29;20056;-73
2021/06/11 03:47:08;;;;;;;15.07;10.40;;;;;;;12.50;94.12;95856.47;4903130;29;20047;-72
2021/06/11 03:49:34;;;;;;;18.40;11.18;;;;;;;12.51;94.24;95864.09;4933661;29;20500;-74
2021/06/11 03:52:00;;;;;;;20.27;11.45;;;;;;;12.52;94.24;95863.06;4921400;29;20052;-72
2021/06/11 03:54:27;;;;;;;15.50;11.27;;;;;;;12.55;93.97;95859.88;4895498;29;20501;-72
2021/06/11 03:56:54;;;;;;;16.42;10.93;;;;;;;12.58;94.02;95859.31;4902797;29;20115;-73
2021/06/11 03:59:22;;;;;;;16.40;10.63;;;;;;;12.55;93.78;95859.88;4899627;29;20040;-72
2021/06/11 04:01:51;;;;;;;14.65;10.18;;;;;;;12.56;93.88;95861.44;4899142;29;20040;-73
2021/06/11 04:04:17;;;;;;;16.33;11.75;;;;;;;12.58;93.87;95869.88;4920083;29;20059;-73
2021/06/11 04:06:46;;;;;;;16.27;11.07;;;;;;;12.61;94.32;95866.72;4931753;29;20054;-73
2021/06/11 04:09:16;;;;;;;15.70;10.30;;;;;;;12.63;93.48;95867.22;4918814;29;20044;-73
2021/06/11 04:11:49;;;;;;;17.25;11.45;;;;;;;12.66;94.00;95860.59;4924917;29;20040;-75
2021/06/11 04:14:27;;;;;;;16.58;10.90;;;;;;;12.68;93.71;95868.25;4910239;29;20040;-75
2021/06/11 04:16:57;;;;;;;19.05;11.25;;;;;;;12.70;93.71;95863.47;4914492;29;20078;-75
2021/06/11 04:19:32;;;;;;;18.42;11.30;;;;;;;12.76;93.90;95865.81;4915154;29;20410;-75
2021/06/11 04:21:59;;;;;;;16.80;11.02;;;;;;;12.77;93.62;95866.59;4895441;29;20127;-74
2021/06/11 04:24:34;;;;;;;12.40;9.43;;;;;;;12.84;93.68;95872.38;4895064;29;20044;-75
2021/06/11 04:27:01;;;;;;;16.48;10.57;;;;;;;12.85;93.64;95863.38;4894895;29;20051;-73
2021/06/11 04:29:30;;;;;;;18.65;10.70;;;;;;;12.89;93.50;95879.50;4913078;29;20655;-73
2021/06/11 04:31:56;;;;;;;15.10;10.05;;;;;;;12.95;93.15;95884.44;4929877;29;20512;-73
2021/06/11 04:34:24;;;;;;;16.45;10.35;;;;;;;12.98;93.40;95889.16;4916989;29;20048;-73
2021/06/11 04:36:51;;;;;;;14.00;10.07;;;;;;;13.03;93.29;95877.81;4916529;29;20478;-74
2021/06/11 04:39:16;;;;;;;15.57;10.35;;;;;;;13.04;93.27;95891.78;4918225;29;20499;-73
2021/06/11 04:41:42;;;;;;;18.45;9.77;;;;;;;13.12;92.89;95888.56;4898377;29;20068;-73
2021/06/11 04:44:08;;;;;;;13.60;9.98;;;;;;;13.16;92.41;95889.59;4898681;29;20506;-73
2021/06/11 04:46:34;;;;;;;16.85;10.05;;;;;;;13.23;92.40;95890.06;4900937;29;20051;-73
2021/06/11 04:49:00;;;;;;;14.20;10.15;;;;;;;13.36;92.34;95887.88;4918154;29;20496;-73
2021/06/11 04:51:26;;;;;;;13.43;9.85;;;;;;;13.39;91.98;95884.66;4927938;29;20046;-73
2021/06/11 04:53:52;;;;;;;14.60;10.48;;;;;;;13.39;92.69;95887.31;4898539;29;20044;-73
2021/06/11 04:56:18;;;;;;;14.60;10.63;;;;;;;13.39;91.84;95893.41;4912923;29;20049;-73
2021/06/11 04:58:44;;;;;;;16.15;9.55;;;;;;;13.41;91.95;95887.84;4907203;29;20091;-72
2021/06/11 05:01:10;;;;;;;13.27;9.75;;;;;;;13.42;91.21;95887.56;4913649;29;20561;-73
2021/06/11 05:03:36;;;;;;;13.85;9.15;;;;;;;13.48;90.97;95891.72;4908680;29;20060;-73
2021/06/11 05:06:04;;;;;;;11.35;8.43;;;;;;;13.49;90.88;95892.53;4920413;29;20521;-73
2021/06/11 05:08:30;;;;;;;15.55;9.20;;;;;;;13.52;90.63;95891.97;4917125;29;20047;-73
2021/06/11 05:10:56;;;;;;;14.65;8.48;;;;;;;13.60;90.41;95893.22;4916135;29;20138;-73
2021/06/11 05:13:22;;;;;;;15.60;9.50;;;;;;;13.60;90.55;95899.28;4913936;29;20052;-73
2021/06/11 05:15:48;;;;;;;13.68;8.48;;;;;;;13.64;90.56;95895.00;4898273;29;20052;-73
2021/06/11 05:18:14;;;;;;;14.15;9.57;;;;;;;13.67;91.14;95898.97;4911608;29;20056;-73
2021/06/11 05:20:39;;;;;;;12.65;9.23;;;;;;;13.74;89.76;95894.13;4919706;29;20087;-74
2021/06/11 05:23:06;;;;;;;15.25;9.25;;;;;;;13.80;90.06;95893.00;4905227;29;20104;-75
2021/06/11 05:25:32;;;;;;;14.60;10.05;;;;;;;13.94;89.81;95893.13;4907522;29;20100;-73
2021/06/11 05:27:58;;;;;;;14.13;8.95;;;;;;;13.99;90.02;95895.75;4897889;29;20052;-73
2021/06/11 05:30:25;;;;;;;13.13;9.15;;;;;;;14.10;89.68;95906.22;4912796;29;20420;-73
2021/06/11 05:32:51;;;;;;;12.38;8.68;;;;;;;14.19;89.62;95899.22;4916385;29;20050;-73
2021/06/11 05:35:17;;;;;;;13.90;8.55;;;;;;;14.31;89.29;95896.97;4916819;29;20040;-73
2021/06/11 05:37:43;;;;;;;13.55;9.15;;;;;;;14.40;89.72;95899.75;4910880;29;20390;-73
2021/06/11 05:40:09;;;;;;;14.15;8.77;;;;;;;14.52;88.19;95896.69;4917309;29;20121;-73
2021/06/11 05:42:34;;;;;;;12.43;9.23;;;;;;;14.60;87.73;95896.06;4903803;29;20456;-73
2021/06/11 05:45:00;;;;;;;13.98;8.82;;;;;;;14.64;87.62;95894.47;4909014;29;20067;-73
2021/06/11 05:47:26;;;;;;;13.63;8.70;;;;;;;14.70;87.42;95898.59;4934193;29;20091;-73
2021/06/11 05:49:51;;;;;;;12.25;8.77;;;;;;;14.76;87.32;95896.69;4902828;29;20055;-73
2021/06/11 05:52:17;;;;;;;13.65;9.20;;;;;;;14.78;87.65;95904.34;4913117;29;20091;-73
2021/06/11 05:54:43;;;;;;;13.77;9.48;;;;;;;14.88;87.11;95894.41;4899737;29;20462;-73
2021/06/11 05:57:09;;;;;;;13.80;9.65;;;;;;;15.00;86.83;95899.25;4915602;29;20055;-73
2021/06/11 05:59:34;;;;;;;12.73;9.07;;;;;;;15.09;86.27;95898.63;4908630;29;20182;-73
2021/06/11 06:02:00;;;;;;;16.13;9.63;;;;;;;15.16;86.72;95902.47;4911431;29;20577;-74
2021/06/11 06:04:25;;;;;;;12.50;9.45;;;;;;;15.17;87.19;95905.88;4915558;29;20458;-73
2021/06/11 06:06:51;;;;;;;14.63;9.25;;;;;;;15.26;85.69;95909.47;4929379;29;20549;-73
2021/06/11 06:09:16;;;;;;;18.42;9.15;;;;;;;15.23;86.27;95900.22;4910070;29;20044;-73
2021/06/11 06:11:42;;;;;;;13.65;9.10;;;;;;;15.37;85.27;95905.59;4896624;29;20068;-73
2021/06/11 06:14:08;;;;;;;11.50;8.90;;;;;;;15.48;84.82;95905.41;4896657;29;20048;-72
2021/06/11 06:16:35;;;;;;;13.73;8.55;;;;;;;15.59;85.16;95902.28;4914827;29;20048;-73
2021/06/11 06:19:01;;;;;;;14.45;8.77;;;;;;;15.62;86.41;95906.25;4911567;29;20108;-73
2021/06/11 06:21:30;;;;;;;12.70;8.90;;;;;;;15.59;85.17;95906.81;4907177;29;20048;-74
2021/06/11 06:23:55;;;;;;;12.60;9.00;;;;;;;15.66;84.00;95907.25;4915001;29;20115;-73
2021/06/11 06:26:21;;;;;;;17.48;9.93;;;;;;;15.65;84.99;95910.97;4906291;29;20444;-73
2021/06/11 06:28:47;;;;;;;17.15;10.32;;;;;;;15.80;82.56;95907.28;4934761;29;20043;-74
2021/06/11 06:31:12;;;;;;;15.63;10.00;;;;;;;15.83;84.94;95911.22;4917478;29;20041;-73
2021/06/11 06:33:38;;;;;;;14.05;9.45;;;;;;;16.02;81.59;95905.81;4906406;29;20056;-73
2021/06/11 06:36:03;;;;;;;15.85;9.52;;;;;;;16.11;80.99;95907.50;4915112;29;20052;-73
2021/06/11 06:38:32;;;;;;;15.70;9.23;;;;;;;16.18;79.81;95901.03;4933409;29;20043;-73
2021/06/11 06:41:01;;;;;;;12.98;9.32;;;;;;;16.10;78.34;95900.63;4925152;29;20036;-72
2021/06/11 06:43:27;;;;;;;14.95;9.02;;;;;;;16.11;78.77;95906.72;4914075;29;20047;-73
2021/06/11 06:45:53;;;;;;;12.13;9.57;;;;;;;16.21;79.35;95906.53;4899065;29;20087;-73
2021/06/11 06:48:19;;;;;;;14.60;9.88;;;;;;;16.29;79.09;95902.38;4924002;29;20043;-73
2021/06/11 06:50:44;;;;;;;15.68;9.40;;;;;;;16.42;78.53;95906.91;4915513;29;20048;-73
2021/06/11 06:53:10;;;;;;;14.63;9.25;;;;;;;16.49;77.19;95905.72;4918809;29;20040;-73
2021/06/11 06:55:37;;;;;;;12.75;9.45;;;;;;;16.54;76.59;95900.31;4923853;29;20036;-73
2021/06/11 06:58:03;;;;;;;11.77;8.68;;;;;;;16.67;76.22;95896.84;4913478;29;20454;-73
2021/06/11 07:00:29;;;;;;;14.70;8.93;;;;;;;16.68;77.38;95898.41;4913297;29;20525;-73
2021/06/11 07:02:54;;;;;;;20.13;9.65;;;;;;;16.78;76.97;95898.19;4911082;29;20037;-73
2021/06/11 07:05:20;;;;;;;15.68;9.68;;;;;;;16.60;77.15;95901.78;4900474;29;20039;-73
2021/06/11 07:07:45;;;;;;;13.38;8.95;;;;;;;16.45;77.41;95901.00;4919113;29;20422;-74
2021/06/11 07:10:11;;;;;;;19.63;8.98;;;;;;;16.55;75.69;95899.22;4900661;29;20142;-73
2021/06/11 07:12:37;;;;;;;12.55;8.85;;;;;;;16.85;75.22;95904.97;4911979;29;20040;-73
2021/06/11 07:15:05;;;;;;;14.27;9.95;;;;;;;17.01;75.17;95900.91;4915603;29;20467;-73
2021/06/11 07:17:30;;;;;;;13.68;9.13;;;;;;;17.04;74.17;95910.94;4909812;29;20056;-73
2021/06/11 07:19:56;;;;;;;12.90;8.90;;;;;;;17.05;74.87;95901.91;4931360;29;20670;-73
2021/06/11 07:22:21;;;;;;;11.80;8.68;;;;;;;16.92;76.93;95908.03;4914364;29;20089;-73
2021/06/11 07:24:47;;;;;;;12.20;9.15;;;;;;;16.95;73.42;95902.09;4895364;29;20407;-73
2021/06/11 07:27:13;;;;;;;15.10;9.13;;;;;;;17.02;70.42;95902.47;4900349;29;20048;-73
2021/06/11 07:29:45;;;;;;;11.48;8.52;;;;;;;16.94;74.83;95900.56;4908529;29;20095;-72
2021/06/11 07:32:16;;;;;;;13.32;8.43;;;;;;;17.33;71.83;95912.41;4928730;29;20051;-73
2021/06/11 07:34:42;;;;;;;12.15;8.82;;;;;;;17.23;71.63;95907.34;4902142;29;20049;-72
2021/06/11 07:37:08;;;;;;;10.52;8.18;;;;;;;17.46;70.22;95911.56;4906042;29;20119;-71
2021/06/11 07:39:34;;;;;;;12.73;8.77;;;;;;;17.74;69.59;95906.09;4916616;29;20048;-72
2021/06/11 07:42:00;;;;;;;11.95;8.40;;;;;;;17.81;67.46;95901.13;4913514;29;20459;-72
2021/06/11 07:44:26;;;;;;;14.95;8.80;;;;;;;17.67;67.94;95901.19;4897652;29;20040;-72
2021/06/11 07:46:52;;;;;;;13.40;8.43;;;;;;;17.53;69.42;95913.00;4917344;29;20056;-71
2021/06/11 07:49:17;;;;;;;10.23;7.45;;;;;;;17.81;67.94;95906.44;4906674;29;20048;-71
2021/06/11 07:51:43;;;;;;;15.40;8.35;;;;;;;17.71;70.73;95901.34;4909854;29;20040;-73
2021/06/11 07:54:08;;;;;;;11.13;8.25;;;;;;;17.80;68.94;95910.19;4915493;29;20047;-72
2021/06/11 07:56:36;;;;;;;11.93;8.45;;;;;;;17.66;68.72;95906.81;4912132;29;20048;-72
2021/06/11 07:59:02;;;;;;;11.50;8.10;;;;;;;17.69;68.02;95900.13;4908650;29;20045;-72
2021/06/11 08:01:28;;;;;;;10.23;7.85;;;;;;;17.80;69.78;95899.53;4910178;29;20036;-72
2021/06/11 08:03:53;;;;;;;10.75;8.23;;;;;;;17.74;69.24;95895.44;4901222;29;20047;-72
2021/06/11 08:06:19;;;;;;;13.52;8.45;;;;;;;17.63;68.49;95894.13;4907199;29;20048;-74
2021/06/11 08:08:44;;;;;;;14.13;8.30;;;;;;;17.61;71.37;95896.31;4925300;29;20044;-73
2021/06/11 08:11:10;;;;;;;11.10;8.38;;;;;;;17.78;65.13;95891.06;4907955;29;20037;-72
2021/06/11 08:13:37;;;;;;;13.45;8.70;;;;;;;17.92;65.75;95895.56;4912200;29;20070;-72
2021/06/11 08:16:03;;;;;;;10.88;8.07;;;;;;;18.16;65.79;95890.63;4911755;29;20048;-71
2021/06/11 08:18:28;;;;;;;11.68;7.80;;;;;;;18.30;65.11;95895.06;4895445;29;20036;-72
2021/06/11 08:20:54;;;;;;;13.13;7.72;;;;;;;18.21;63.79;95896.91;4894789;29;20052;-71
2021/06/11 08:23:19;;;;;;;12.77;8.43;;;;;;;18.22;64.57;95893.16;4907522;29;20463;-71
2021/06/11 08:25:45;;;;;;;12.23;8.23;;;;;;;18.45;63.10;95891.97;4911501;29;20049;-71
2021/06/11 08:28:11;;;;;;;11.38;7.72;;;;;;;18.66;62.95;95891.34;4906791;29;20048;-72
2021/06/11 08:30:36;;;;;;;12.13;7.88;;;;;;;18.46;63.26;95893.53;4906691;29;20040;-72
2021/06/11 08:33:03;;;;;;;10.90;7.45;;;;;;;18.53;64.17;95893.88;4922827;29;20039;-72
2021/06/11 08:35:29;;;;;;;9.13;7.15;;;;;;;18.76;60.01;95891.09;4920218;29;20036;-72
2021/06/11 08:37:55;;;;;;;14.25;8.18;;;;;;;18.67;61.66;95887.59;4899371;29;20052;-73
2021/06/11 08:40:21;;;;;;;10.90;7.40;;;;;;;18.76;62.97;95880.41;4904639;29;20051;-72
2021/06/11 08:42:47;;;;;;;10.15;7.50;;;;;;;19.19;59.49;95882.31;4908690;29;20069;-71
2021/06/11 08:45:14;;;;;;;11.80;7.10;;;;;;;19.38;58.16;95889.22;4906614;29;20051;-72
2021/06/11 08:47:46;;;;;;;12.75;7.47;;;;;;;19.44;56.87;95885.28;4923665;29;20067;-71
2021/06/11 08:50:12;;;;;;;12.02;7.13;;;;;;;19.19;61.37;95887.66;4896814;29;20048;-73
2021/06/11 08:52:38;;;;;;;11.25;7.63;;;;;;;19.23;59.31;95889.69;4896307;29;20117;-72
2021/06/11 08:55:04;;;;;;;12.88;7.50;;;;;;;19.07;58.77;95890.16;4900081;29;20061;-72
2021/06/11 08:57:30;;;;;;;10.95;7.15;;;;;;;19.21;58.42;95890.78;4913812;29;20076;-72
2021/06/11 08:59:55;;;;;;;11.68;7.13;;;;;;;19.41;57.49;95888.56;4897883;29;20077;-72
2021/06/11 09:02:23;;;;;;;11.48;7.85;;;;;;;19.78;56.39;95896.94;4916275;29;20055;-72
2021/06/11 09:04:52;;;;;;;13.23;8.40;;;;;;;19.99;55.66;95885.63;4913493;29;20095;-72
2021/06/11 09:07:28;;;;;;;12.13;8.02;;;;;;;20.22;53.13;95902.16;4900590;29;20041;-71
2021/06/11 09:09:58;;;;;;;10.90;7.63;;;;;;;20.27;55.58;95901.19;4913118;29;20040;-71
2021/06/11 09:12:28;;;;;;;10.00;7.22;;;;;;;20.39;55.89;95898.63;4906351;29;20037;-72
2021/06/11 09:14:56;;;;;;;11.50;7.93;;;;;;;20.12;56.16;95891.84;4898400;29;20153;-73
2021/06/11 09:17:45;;;;;;;11.20;7.82;;;;;;;20.01;56.57;95894.06;4925296;29;20056;-73
2021/06/11 09:20:19;;;;;;;12.20;7.80;;;;;;;19.83;56.80;95896.81;4914396;29;20048;-72
2021/06/11 09:23:01;;;;;;;10.35;7.47;;;;;;;19.94;55.95;95899.13;4914987;29;20051;-72
2021/06/11 09:25:36;;;;;;;11.63;7.60;;;;;;;20.03;55.09;95897.22;4914815;29;20086;-73
2021/06/11 09:28:06;;;;;;;12.00;7.95;;;;;;;19.93;55.25;95903.69;4913473;29;20048;-72
2021/06/11 09:30:33;;;;;;;12.15;8.20;;;;;;;20.16;53.45;95895.44;4913120;29;20188;-72
2021/06/11 09:33:01;;;;;;;14.73;7.97;;;;;;;19.91;55.35;95895.22;4915081;29;20044;-73
2021/06/11 09:35:31;;;;;;;12.00;7.90;;;;;;;20.03;57.41;95897.22;4914507;29;20451;-73
2021/06/11 09:38:18;;;;;;;16.20;7.57;;;;;;;20.16;56.09;95896.22;4911044;29;20044;-73
2021/06/11 09:40:49;;;;;;;10.20;7.35;;;;;;;20.31;54.33;95886.09;4913722;29;20043;-73
2021/06/11 09:43:16;;;;;;;10.27;8.20;;;;;;;20.61;52.57;95889.53;4911845;29;20467;-73
2021/06/11 09:45:43;;;;;;;11.00;7.35;;;;;;;20.91;52.93;95890.28;4914452;29;20518;-73
2021/06/11 09:48:20;;;;;;;10.63;7.78;;;;;;;20.99;51.60;95893.22;4902653;29;20037;-72
2021/06/11 09:50:50;;;;;;;10.98;7.57;;;;;;;20.98;52.57;95897.03;4917206;29;20044;-72
2021/06/11 09:53:17;;;;;;;14.40;8.05;;;;;;;20.83;51.03;95896.50;4913454;29;20040;-72
2021/06/11 09:55:54;;;;;;;12.10;7.10;;;;;;;20.62;51.92;95890.34;4913733;29;20506;-72
2021/06/11 09:58:28;;;;;;;10.63;7.50;;;;;;;20.39;51.78;95882.59;4909332;29;20048;-72
2021/06/11 10:00:55;;;;;;;9.40;7.40;;;;;;;20.32;52.91;95893.00;4912089;29;20044;-71
2021/06/11 10:03:26;;;;;;;12.73;7.82;;;;;;;20.54;52.35;95895.41;4917004;29;20520;-72
2021/06/11 10:05:55;;;;;;;13.65;7.60;;;;;;;20.77;49.97;95892.44;4918728;29;20111;-72
2021/06/11 10:08:21;;;;;;;10.85;7.78;;;;;;;20.87;49.22;95881.34;4918426;29;20075;-71
2021/06/11 10:10:49;;;;;;;9.65;7.25;;;;;;;21.14;48.95;95884.59;4909526;29;20139;-71
2021/06/11 10:13:16;;;;;;;12.52;7.72;;;;;;;21.59;49.52;95894.63;4911253;29;20490;-73
2021/06/11 10:15:43;;;;;;;11.50;7.30;;;;;;;21.66;47.78;95890.59;4913854;29;20159;-72
2021/06/11 10:18:10;;;;;;;10.88;6.82;;;;;;;22.13;45.23;95890.22;4911621;29;20044;-72
2021/06/11 10:20:36;;;;;;;11.07;6.78;;;;;;;22.10;43.30;95880.19;4912624;29;20043;-72
2021/06/11 10:23:05;;;;;;;13.63;6.75;;;;;;;22.14;43.85;95883.75;4914512;29;20422;-72
2021/06/11 10:25:31;;;;;;;10.60;6.82;;;;;;;22.81;44.80;95883.47;4912455;29;20419;-75
2021/06/11 10:27:59;;;;;;;9.52;6.88;;;;;;;22.71;45.60;95881.28;4915393;29;20545;-73
2021/06/11 10:30:27;;;;;;;8.55;7.20;;;;;;;22.96;46.39;95877.41;4911243;29;20119;-71
2021/06/11 10:32:53;;;;;;;10.93;6.88;;;;;;;23.45;43.03;95881.06;4912155;29;20041;-72
2021/06/11 10:35:38;;;;;;;12.05;6.63;;;;;;;23.83;45.14;95879.72;4913780;29;20044;-73
2021/06/11 10:38:05;;;;;;;8.70;6.95;;;;;;;24.28;41.33;95883.91;4929666;29;20578;-73
2021/06/11 10:40:41;;;;;;;8.48;6.70;;;;;;;24.66;43.79;95881.69;4904287;29;20140;-72
2021/06/11 10:43:25;;;;;;;12.88;7.00;;;;;;;25.01;39.84;95883.56;4916996;29;20148;-72
2021/06/11 10:45:51;;;;;;;;;;;;;;;24.86;40.83;95874.41;4909365;29;20123;-73
2021/06/11 10:48:17;;;;;;;8.93;6.80;;;;;;;25.34;40.36;95872.31;4918425;29;20373;-72
2021/06/11 10:50:44;;;;;;;9.10;7.28;;;;;;;24.87;38.52;95875.97;4915239;29;20094;-74
2021/06/11 10:53:27;;;;;;;9.73;7.45;;;;;;;25.53;39.06;95868.00;4898171;29;20052;-73
2021/06/11 10:56:13;;;;;;;9.20;7.03;;;;;;;26.19;36.11;95865.28;4909216;29;20099;-73
2021/06/11 10:58:40;;;;;;;12.30;6.80;;;;;;;26.71;37.65;95858.34;4915968;29;20123;-73
2021/06/11 11:01:22;;;;;;;13.63;7.43;;;;;;;25.48;39.00;95865.63;4913333;29;20460;-75
2021/06/11 11:03:47;;;;;;;9.80;7.30;;;;;;;25.11;38.43;95857.97;4918136;29;20142;-75
2021/06/11 11:06:28;;;;;;;9.27;7.45;;;;;;;24.33;41.07;95859.41;4913605;29;20037;-72
2021/06/11 11:08:56;;;;;;;11.00;7.22;;;;;;;24.68;42.27;95852.50;4916578;29;20047;-72
2021/06/11 11:11:30;;;;;;;10.50;7.78;;;;;;;25.56;39.54;95856.56;4912966;29;20406;-73
2021/06/11 11:13:56;;;;;;;9.07;7.47;;;;;;;25.47;39.53;95854.06;4899827;29;20263;-73
2021/06/11 11:16:24;;;;;;;9.15;7.88;;;;;;;26.34;35.87;95842.00;4912352;29;20403;-72
2021/06/11 11:18:49;;;;;;;13.05;8.02;;;;;;;26.56;37.81;95845.78;4900961;29;20060;-72
2021/06/11 11:21:25;;;;;;;11.07;7.25;;;;;;;26.19;36.58;95849.09;4913391;29;20040;-72
2021/06/11 11:23:53;;;;;;;12.40;8.13;;;;;;;24.68;38.02;95847.13;4919452;29;20100;-72
2021/06/11 11:26:19;;;;;;;12.77;7.47;;;;;;;24.19;39.77;95834.88;4912188;29;20044;-71
2021/06/11 11:28:46;;;;;;;8.05;6.60;;;;;;;25.11;42.00;95837.22;4915859;29;20091;-72